Time;durP1;ratioP1;P1;durP2;ratioP2;P2;SDS_P1;SDS_P2;PMS_P1;PMS_P2;Temp;Humidity;BMP_temperature;BMP_pressure;BME280_temperature;BME280_humidity;BME280_pressure;Samples;Min_cycle;Max_cycle;Signal;HPM_P1;HPM_P2
2021/11/21 00:00:25;;;;;;;;;34.50;26.50;;;;;11.13;63.23;101375.44;5099848;27;46233;-65
2021/11/21 00:02:50;;;;;;;;;29.75;28.00;;;;;11.20;63.14;101386.84;5099752;27;45415;-65
2021/11/21 00:05:16;;;;;;;;;30.00;27.00;;;;;11.17;63.67;101386.06;5100421;27;45266;-65
2021/11/21 00:07:43;;;;;;;;;31.25;28.25;;;;;11.15;63.53;101375.41;5099152;27;45381;-65
2021/11/21 00:10:09;;;;;;;;;27.00;25.50;;;;;11.12;63.61;101381.69;5099841;27;45484;-65
2021/11/21 00:12:35;;;;;;;;;29.50;25.25;;;;;11.12;63.64;101371.00;5100349;27;45657;-65
2021/11/21 00:15:01;;;;;;;;;39.25;33.75;;;;;11.10;63.79;101372.84;5100001;27;45548;-65
2021/11/21 00:17:27;;;;;;;;;29.25;27.00;;;;;11.01;63.78;101357.06;5101367;27;45494;-65
2021/11/21 00:19:54;;;;;;;;;32.00;28.25;;;;;11.03;64.06;101362.38;5103233;27;47143;-65
2021/11/21 00:22:19;;;;;;;;;31.25;31.00;;;;;10.94;64.25;101348.31;5093491;27;45420;-65
2021/11/21 00:24:45;;;;;;;;;24.50;23.50;;;;;11.00;63.72;101349.94;5103770;27;45529;-65
2021/11/21 00:27:11;;;;;;;;;28.50;25.50;;;;;11.02;63.83;101352.56;5103851;27;45355;-65
2021/11/21 00:29:36;;;;;;;;;22.00;21.50;;;;;11.06;64.13;101356.91;5103328;27;45222;-65
2021/11/21 00:32:03;;;;;;;;;23.00;21.00;;;;;11.08;63.78;101349.78;5103354;27;45403;-65
2021/11/21 00:34:28;;;;;;;;;26.75;21.50;;;;;10.99;63.74;101339.28;5103702;27;45470;-65
2021/11/21 00:36:54;;;;;;;;;24.25;21.25;;;;;11.08;63.88;101355.97;5103507;27;45385;-65
2021/11/21 00:39:19;;;;;;;;;23.25;21.25;;;;;11.01;64.13;101334.78;5103361;27;46183;-65
2021/11/21 00:41:44;;;;;;;;;23.75;20.25;;;;;11.08;64.06;101344.41;5102995;27;45253;-65
2021/11/21 00:44:10;;;;;;;;;19.75;17.25;;;;;11.12;63.76;101341.63;5103459;27;45285;-64
2021/11/21 00:46:35;;;;;;;;;31.00;26.00;;;;;11.06;63.96;101330.19;5089616;27;45190;-65
2021/11/21 00:49:02;;;;;;;;;22.00;20.75;;;;;11.11;63.57;101333.66;5097195;27;46977;-65
2021/11/21 00:51:28;;;;;;;;;24.75;21.50;;;;;11.07;63.39;101322.16;5100651;27;45704;-65
2021/11/21 00:54:03;;;;;;;;;22.75;20.25;;;;;11.07;63.77;101313.25;5103463;27;45313;-65
2021/11/21 00:56:28;;;;;;;;;22.50;20.50;;;;;11.11;63.11;101323.84;5103307;27;45986;-65
2021/11/21 00:58:54;;;;;;;;;24.50;20.50;;;;;11.10;63.92;101323.88;5103253;27;45337;-64
2021/11/21 01:01:19;;;;;;;;;29.50;23.00;;;;;11.11;63.59;101309.63;5102826;27;45728;-65
2021/11/21 01:03:45;;;;;;;;;22.75;18.50;;;;;11.07;63.30;101311.47;5103270;27;45524;-65
2021/11/21 01:06:10;;;;;;;;;20.75;18.50;;;;;11.03;63.21;101295.56;5103281;27;45364;-65
2021/11/21 01:08:36;;;;;;;;;23.25;20.00;;;;;11.08;63.49;101307.88;5103006;27;46058;-65
2021/11/21 01:11:04;;;;;;;;;21.25;17.75;;;;;11.06;63.35;101307.06;5102607;27;45269;-65
2021/11/21 01:13:30;;;;;;;;;19.75;19.25;;;;;11.03;63.50;101311.59;5103124;27;45426;-65
2021/11/21 01:15:56;;;;;;;;;19.75;18.00;;;;;11.09;63.48;101316.78;5103038;27;45518;-65
2021/11/21 01:18:21;;;;;;;;;24.00;21.75;;;;;11.04;63.78;101308.00;5102738;27;46445;-65
2021/11/21 01:20:47;;;;;;;;;22.00;20.00;;;;;11.11;63.62;101312.28;5102244;27;45429;-65
2021/11/21 01:23:15;;;;;;;;;26.75;22.00;;;;;11.11;63.55;101310.47;5103085;27;45310;-65
2021/11/21 01:25:42;;;;;;;;;27.50;24.50;;;;;11.11;63.56;101320.31;5102875;27;45234;-65
2021/11/21 01:28:09;;;;;;;;;27.50;21.75;;;;;11.09;63.41;101312.31;5102012;27;46123;-65
2021/11/21 01:30:34;;;;;;;;;24.25;21.00;;;;;11.06;63.83;101306.16;5101407;27;45914;-65
2021/11/21 01:33:03;;;;;;;;;25.25;24.75;;;;;11.06;63.43;101306.16;5101887;27;45302;-65
2021/11/21 01:35:29;;;;;;;;;26.50;22.00;;;;;11.03;63.79;101311.59;5102805;27;45336;-65
2021/11/21 01:37:55;;;;;;;;;21.00;15.25;;;;;10.95;63.57;101298.44;5102395;27;45567;-65
2021/11/21 01:40:21;;;;;;;;;25.75;22.25;;;;;10.84;63.61;101285.34;5102426;27;45424;-65
2021/11/21 01:42:48;;;;;;;;;25.50;21.00;;;;;10.91;63.91;101291.41;5102441;27;45311;-65
2021/11/21 01:45:14;;;;;;;;;24.75;20.25;;;;;10.85;63.80;101291.56;5095666;27;45222;-65
2021/11/21 01:47:43;;;;;;;;;25.75;23.25;;;;;10.91;64.17;101300.31;5095648;27;46568;-65
2021/11/21 01:50:12;;;;;;;;;27.50;24.75;;;;;10.91;64.18;101299.44;5090690;27;46165;-65
2021/11/21 01:52:38;;;;;;;;;26.25;24.50;;;;;10.95;64.21;101303.78;5102352;27;45222;-65
2021/11/21 01:55:05;;;;;;;;;19.75;16.75;;;;;10.87;64.07;101293.25;5102429;27;45412;-65
2021/11/21 01:57:30;;;;;;;;;18.75;14.50;;;;;10.90;63.65;101300.34;5102198;27;45454;-65
2021/11/21 01:59:59;;;;;;;;;24.25;21.00;;;;;10.90;64.02;101301.19;5102068;27;45677;-65
2021/11/21 02:02:25;;;;;;;;;20.00;17.00;;;;;10.89;63.40;101293.22;5101966;27;45344;-65
2021/11/21 02:04:51;;;;;;;;;18.25;17.25;;;;;10.82;63.88;101287.16;5102507;27;45254;-65
2021/11/21 02:07:16;;;;;;;;;19.25;18.00;;;;;10.85;63.50;101294.22;5102017;27;46220;-65
2021/11/21 02:09:41;;;;;;;;;20.50;19.00;;;;;10.84;63.81;101287.13;5102126;27;52522;-65
2021/11/21 02:12:07;;;;;;;;;18.50;17.25;;;;;10.81;63.71;101280.09;5101610;27;45473;-64
2021/11/21 02:14:33;;;;;;;;;19.25;16.00;;;;;10.88;63.99;101281.69;5102066;27;45360;-65
2021/11/21 02:16:58;;;;;;;;;20.00;18.50;;;;;10.88;63.95;101272.78;5101841;27;46973;-65
2021/11/21 02:19:24;;;;;;;;;19.00;18.00;;;;;10.84;64.23;101266.66;5102095;27;45244;-65
2021/11/21 02:21:50;;;;;;;;;18.00;16.50;;;;;10.92;64.36;101286.00;5101606;27;45237;-65
2021/11/21 02:24:15;;;;;;;;;19.00;19.00;;;;;10.94;64.25;101273.53;5101897;27;45326;-65
2021/11/21 02:26:41;;;;;;;;;19.75;19.75;;;;;10.96;63.87;101270.81;5101608;27;45920;-65
2021/11/21 02:29:07;;;;;;;;;22.00;18.25;;;;;10.97;63.88;101264.53;5101722;27;45412;-64
2021/11/21 02:31:32;;;;;;;;;20.50;19.00;;;;;10.88;64.10;101238.06;5101564;27;46569;-65
2021/11/21 02:33:58;;;;;;;;;28.75;26.75;;;;;10.98;64.72;101249.41;5100451;27;45443;-65
2021/11/21 02:36:24;;;;;;;;;23.00;19.00;;;;;10.93;64.23;101239.69;5101299;27;46020;-65
2021/11/21 02:38:49;;;;;;;;;27.75;21.00;;;;;11.04;64.26;101252.78;5101674;27;45337;-65
2021/11/21 02:41:15;;;;;;;;;27.75;25.25;;;;;11.06;64.20;101247.38;5100752;27;45474;-65
2021/11/21 02:43:45;;;;;;;;;24.50;19.75;;;;;11.07;64.14;101250.00;5101555;27;45475;-65
2021/11/21 02:46:11;;;;;;;;;26.75;23.00;;;;;11.07;63.87;101244.66;5087162;27;46338;-65
2021/11/21 02:48:38;;;;;;;;;28.00;24.75;;;;;11.01;64.44;101236.84;5099529;27;45387;-65
2021/11/21 02:51:07;;;;;;;;;28.50;25.25;;;;;11.09;64.06;101241.97;5095212;27;45447;-65
2021/11/21 02:53:34;;;;;;;;;30.50;26.75;;;;;11.09;64.33;101245.53;5101569;27;45394;-65
2021/11/21 02:56:02;;;;;;;;;28.25;27.00;;;;;11.10;64.18;101244.59;5101025;27;46065;-65
2021/11/21 02:58:32;;;;;;;;;27.50;25.50;;;;;10.92;63.97;101213.03;5101361;27;45343;-65
2021/11/21 03:00:58;;;;;;;;;30.00;26.75;;;;;11.09;64.15;101228.59;5100841;27;45817;-65
2021/11/21 03:03:23;;;;;;;;;23.25;23.25;;;;;11.10;64.14;101217.88;5101353;27;45908;-65
2021/11/21 03:05:49;;;;;;;;;37.50;27.50;;;;;11.10;64.40;101212.53;5101019;27;46188;-65
2021/11/21 03:08:14;;;;;;;;;31.00;26.75;;;;;11.08;64.55;101208.16;5101255;27;45255;-64
2021/11/21 03:10:40;;;;;;;;;27.50;23.50;;;;;10.97;64.21;101192.41;5100711;27;45254;-65
2021/11/21 03:13:07;;;;;;;;;29.75;27.00;;;;;11.02;64.65;101185.16;5101137;27;45460;-65
2021/11/21 03:15:33;;;;;;;;;29.25;27.00;;;;;11.10;64.27;101199.19;5100785;27;46420;-65
2021/11/21 03:17:59;;;;;;;;;30.75;23.00;;;;;11.07;64.35;101195.72;5100997;27;45310;-65
2021/11/21 03:20:28;;;;;;;;;29.50;24.00;;;;;11.04;64.52;101178.00;5099802;27;45515;-65
2021/11/21 03:22:55;;;;;;;;;27.50;25.00;;;;;11.03;64.13;101167.34;5101183;27;45244;-65
2021/11/21 03:25:21;;;;;;;;;28.25;27.00;;;;;11.12;64.08;101175.09;5100479;27;46333;-65
2021/11/21 03:27:47;;;;;;;;;23.25;20.25;;;;;11.11;64.30;101176.91;5087606;27;45340;-65
2021/11/21 03:30:15;;;;;;;;;31.50;23.00;;;;;11.06;63.88;101176.16;5098837;27;45537;-64
2021/11/21 03:32:41;;;;;;;;;26.75;21.25;;;;;11.12;64.10;101178.63;5101173;27;45398;-65
2021/11/21 03:35:07;;;;;;;;;27.25;19.00;;;;;11.11;64.31;101171.56;5100615;27;46899;-65
2021/11/21 03:37:33;;;;;;;;;29.25;23.00;;;;;11.18;64.13;101182.94;5100985;27;45281;-65
2021/11/21 03:39:59;;;;;;;;;32.00;27.00;;;;;11.16;64.22;101181.22;5100479;27;45157;-65
2021/11/21 03:42:24;;;;;;;;;34.00;31.75;;;;;11.11;64.03;101168.88;5100851;27;45257;-65
2021/11/21 03:44:50;;;;;;;;;28.50;22.25;;;;;11.16;63.95;101175.88;5096930;27;45230;-65
2021/11/21 03:47:15;;;;;;;;;25.75;22.75;;;;;11.17;64.24;101178.50;5090677;27;45321;-64
2021/11/21 03:49:41;;;;;;;;;27.25;22.50;;;;;11.12;63.89;101170.63;5099403;27;45464;-64
2021/11/21 03:52:07;;;;;;;;;31.50;23.25;;;;;11.12;64.47;101170.63;5099555;27;45481;-65
2021/11/21 03:54:33;;;;;;;;;27.00;23.25;;;;;11.11;64.14;101165.34;5100482;27;45336;-65
2021/11/21 03:56:58;;;;;;;;;26.75;21.00;;;;;11.13;64.25;101172.38;5100761;27;45340;-65
2021/11/21 03:59:23;;;;;;;;;27.75;21.25;;;;;11.19;63.94;101175.78;5100111;27;45296;-65
2021/11/21 04:01:49;;;;;;;;;29.75;26.50;;;;;11.18;64.19;101171.38;5100483;27;45281;-65
2021/11/21 04:04:15;;;;;;;;;30.75;28.50;;;;;11.24;64.23;101173.88;5100468;27;46066;-65
2021/11/21 04:06:41;;;;;;;;;30.50;29.25;;;;;11.21;64.06;101171.28;5100567;27;45318;-65
2021/11/21 04:09:07;;;;;;;;;26.00;22.75;;;;;11.25;63.84;101181.84;5100338;27;45327;-65
2021/11/21 04:11:32;;;;;;;;;25.75;23.25;;;;;11.21;63.89;101179.28;5100217;27;45225;-65
2021/11/21 04:13:58;;;;;;;;;25.75;22.50;;;;;11.12;63.81;101167.06;5098874;27;46118;-65
2021/11/21 04:16:25;;;;;;;;;25.75;23.50;;;;;11.16;64.04;101173.19;5100385;27;45595;-65
2021/11/21 04:18:50;;;;;;;;;29.00;26.75;;;;;11.20;64.11;101169.53;5100017;27;45311;-65
2021/11/21 04:21:15;;;;;;;;;27.00;23.50;;;;;11.19;63.73;101167.78;5100313;27;45504;-65
2021/11/21 04:23:41;;;;;;;;;33.00;26.25;;;;;11.19;64.14;101165.97;5100191;27;45356;-64
2021/11/21 04:26:06;;;;;;;;;26.25;22.00;;;;;11.19;64.18;101157.97;5100227;27;45271;-65
2021/11/21 04:28:31;;;;;;;;;27.50;25.50;;;;;11.12;64.24;101141.22;5100153;27;45295;-65
2021/11/21 04:30:57;;;;;;;;;31.00;25.50;;;;;11.19;64.19;101157.09;5099919;27;45295;-65
2021/11/21 04:33:23;;;;;;;;;32.25;24.00;;;;;11.17;64.46;101153.59;5099946;27;45335;-65
2021/11/21 04:35:49;;;;;;;;;21.25;20.50;;;;;11.06;64.27;101136.06;5100186;27;45777;-64
2021/11/21 04:38:15;;;;;;;;;25.00;21.50;;;;;11.08;64.52;101136.91;5099771;27;45526;-65
2021/11/21 04:40:42;;;;;;;;;23.25;23.00;;;;;11.12;64.12;101143.03;5097929;27;45487;-65
2021/11/21 04:43:07;;;;;;;;;27.50;22.00;;;;;11.15;64.26;101139.41;5098498;27;45621;-65
2021/11/21 04:45:33;;;;;;;;;29.50;27.50;;;;;11.13;64.03;101142.13;5090000;27;45262;-64
2021/11/21 04:47:58;;;;;;;;;28.75;23.50;;;;;11.08;64.42;101128.03;5095463;27;45546;-64
2021/11/21 04:50:23;;;;;;;;;27.25;22.50;;;;;11.07;64.73;101126.25;5091466;27;45302;-65
2021/11/21 04:52:49;;;;;;;;;37.00;28.00;;;;;11.08;64.60;101122.69;5099503;27;46226;-65
2021/11/21 04:55:14;;;;;;;;;35.50;28.50;;;;;11.06;64.63;101124.50;5099969;27;45209;-65
2021/11/21 04:57:41;;;;;;;;;30.50;25.75;;;;;11.11;64.55;101134.16;5099787;27;45254;-65
2021/11/21 05:00:11;;;;;;;;;27.75;25.50;;;;;11.03;64.87;101117.47;5099278;27;45411;-64
2021/11/21 05:02:40;;;;;;;;;28.25;22.50;;;;;11.09;64.97;101124.41;5099685;27;45362;-65
2021/11/21 05:05:07;;;;;;;;;29.75;25.50;;;;;11.09;64.70;101124.41;5103562;27;45410;-65
2021/11/21 05:07:32;;;;;;;;;35.50;24.50;;;;;11.08;64.63;101120.88;5103237;27;45346;-65
2021/11/21 05:09:57;;;;;;;;;29.00;26.00;;;;;11.06;64.85;101114.69;5103035;27;45546;-65
2021/11/21 05:12:23;;;;;;;;;29.50;25.00;;;;;11.08;65.12;101112.00;5102779;27;47481;-65
2021/11/21 05:14:49;;;;;;;;;25.75;23.50;;;;;10.96;65.10;101086.50;5102844;27;45336;-65
2021/11/21 05:17:14;;;;;;;;;22.50;22.50;;;;;11.04;64.81;101104.97;5103043;27;45318;-65
2021/11/21 05:19:39;;;;;;;;;28.00;25.75;;;;;11.10;65.11;101102.13;5102718;27;45425;-65
2021/11/21 05:22:05;;;;;;;;;29.25;25.00;;;;;11.11;64.82;101102.09;5102658;27;45324;-65
2021/11/21 05:24:30;;;;;;;;;30.50;24.50;;;;;11.08;64.88;101095.97;5103172;27;45455;-64
2021/11/21 05:26:56;;;;;;;;;26.50;24.25;;;;;11.03;64.95;101088.06;5102914;27;45444;-64
2021/11/21 05:29:22;;;;;;;;;27.25;21.50;;;;;11.09;65.07;101103.03;5102671;27;45345;-65
2021/11/21 05:31:47;;;;;;;;;36.25;26.75;;;;;11.03;64.72;101090.75;5102664;27;45844;-65
2021/11/21 05:34:14;;;;;;;;;29.75;25.25;;;;;11.02;64.78;101083.63;5103050;27;45215;-65
2021/11/21 05:36:40;;;;;;;;;18.75;15.25;;;;;11.11;64.74;101106.56;5101586;27;45283;-65
2021/11/21 05:39:05;;;;;;;;;29.00;24.00;;;;;11.12;65.00;101102.94;5102681;27;45415;-65
2021/11/21 05:41:31;;;;;;;;;24.75;22.75;;;;;11.12;64.70;101103.81;5102334;27;46228;-65
2021/11/21 05:43:56;;;;;;;;;30.75;23.50;;;;;11.13;64.73;101102.91;5102526;27;45338;-65
2021/11/21 05:46:22;;;;;;;;;30.50;22.75;;;;;11.10;64.95;101100.31;5089037;27;45297;-65
2021/11/21 05:48:47;;;;;;;;;26.00;21.75;;;;;11.13;64.62;101105.56;5102139;27;45444;-64
2021/11/21 05:51:12;;;;;;;;;26.00;21.50;;;;;11.11;65.00;101090.53;5102080;27;45805;-65
2021/11/21 05:53:38;;;;;;;;;27.25;23.00;;;;;11.15;64.67;101096.66;5102640;27;45257;-65
2021/11/21 05:56:04;;;;;;;;;30.75;27.25;;;;;11.13;64.69;101094.88;5102579;27;45299;-65
2021/11/21 05:58:29;;;;;;;;;23.50;18.75;;;;;11.10;64.92;101084.28;5102215;27;45508;-65
2021/11/21 06:00:55;;;;;;;;;23.75;19.25;;;;;11.13;64.88;101081.53;5101996;27;46099;-65
2021/11/21 06:03:20;;;;;;;;;22.50;17.00;;;;;11.08;64.47;101080.78;5102499;27;45271;-65
2021/11/21 06:05:46;;;;;;;;;26.00;22.25;;;;;11.11;64.80;101090.53;5102579;27;45237;-65
2021/11/21 06:08:11;;;;;;;;;22.00;17.75;;;;;11.10;64.70;101088.78;5102125;27;45439;-65
2021/11/21 06:10:37;;;;;;;;;25.75;22.00;;;;;11.02;64.95;101072.09;5101954;27;46280;-65
2021/11/21 06:13:02;;;;;;;;;21.50;18.25;;;;;11.01;65.15;101068.53;5101121;27;45321;-65
2021/11/21 06:15:27;;;;;;;;;24.25;19.00;;;;;11.03;65.30;101076.53;5101291;27;45279;-65
2021/11/21 06:17:53;;;;;;;;;22.00;20.25;;;;;11.00;65.19;101072.13;5101929;27;45432;-65
2021/11/21 06:20:18;;;;;;;;;24.00;21.50;;;;;11.03;65.16;101066.69;5100568;27;45429;-65
2021/11/21 06:22:44;;;;;;;;;24.50;20.75;;;;;11.05;65.71;101072.88;5102185;27;45329;-65
2021/11/21 06:25:10;;;;;;;;;23.75;21.25;;;;;11.00;65.20;101066.78;5102162;27;45479;-65
2021/11/21 06:27:37;;;;;;;;;22.00;19.50;;;;;11.02;65.08;101069.41;5101948;27;45534;-65
2021/11/21 06:30:04;;;;;;;;;27.25;22.75;;;;;11.02;65.46;101075.63;5101428;27;47139;-65
2021/11/21 06:32:29;;;;;;;;;29.25;26.00;;;;;11.06;65.31;101081.75;5101992;27;45439;-65
2021/11/21 06:34:54;;;;;;;;;24.50;23.75;;;;;11.00;65.24;101061.44;5101869;27;45507;-65
2021/11/21 06:37:20;;;;;;;;;26.75;20.50;;;;;11.03;65.09;101066.69;5101877;27;45432;-65
2021/11/21 06:39:45;;;;;;;;;20.00;19.75;;;;;11.03;65.17;101066.69;5101533;27;45308;-65
2021/11/21 06:42:13;;;;;;;;;23.75;21.25;;;;;10.98;65.46;101063.28;5101789;27;45319;-65
2021/11/21 06:44:39;;;;;;;;;29.50;24.50;;;;;10.96;65.64;101053.56;5099717;27;45355;-65
2021/11/21 06:47:05;;;;;;;;;25.00;21.00;;;;;11.03;65.49;101065.84;5089981;27;45440;-65
2021/11/21 06:49:30;;;;;;;;;22.50;18.50;;;;;11.02;64.97;101064.94;5093163;27;46406;-65
2021/11/21 06:51:56;;;;;;;;;22.50;20.00;;;;;10.95;65.80;101047.34;5101543;27;45205;-65
2021/11/21 06:54:22;;;;;;;;;23.25;18.50;;;;;10.97;65.36;101050.84;5101721;27;45285;-65
2021/11/21 06:56:47;;;;;;;;;18.00;17.50;;;;;10.99;65.40;101073.03;5101181;27;45670;-65
2021/11/21 06:59:12;;;;;;;;;21.00;17.75;;;;;10.89;65.66;101056.41;5101186;27;46906;-65
2021/11/21 07:01:41;;;;;;;;;22.25;18.75;;;;;10.89;65.66;101052.84;5101435;27;45335;-65
2021/11/21 07:04:07;;;;;;;;;21.50;20.00;;;;;10.99;65.35;101074.84;5101758;27;45359;-64
2021/11/21 07:06:37;;;;;;;;;19.50;18.25;;;;;11.00;66.02;101072.13;5101272;27;45444;-65
2021/11/21 07:09:08;;;;;;;;;26.25;22.25;;;;;10.95;65.76;101060.69;5101223;27;45904;-65
2021/11/21 07:11:34;;;;;;;;;19.50;18.25;;;;;11.01;65.59;101068.53;5101161;27;45313;-65
2021/11/21 07:14:00;;;;;;;;;20.25;19.50;;;;;10.94;65.68;101061.59;5101203;27;45257;-65
2021/11/21 07:16:26;;;;;;;;;22.25;17.25;;;;;11.01;66.11;101060.53;5101165;27;45513;-65
2021/11/21 07:18:52;;;;;;;;;20.50;17.25;;;;;10.92;65.26;101050.97;5100912;27;45399;-65
2021/11/21 07:21:17;;;;;;;;;17.00;14.25;;;;;11.03;65.68;101065.84;5100335;27;45451;-65
2021/11/21 07:23:43;;;;;;;;;18.50;18.00;;;;;10.99;65.47;101064.16;5101180;27;45380;-65
2021/11/21 07:26:09;;;;;;;;;20.00;16.25;;;;;10.91;65.65;101045.69;5100854;27;45449;-65
2021/11/21 07:28:35;;;;;;;;;17.75;13.75;;;;;10.94;66.21;101048.25;5100999;27;45470;-65
2021/11/21 07:31:00;;;;;;;;;15.00;14.50;;;;;11.01;65.71;101062.31;5100822;27;45498;-65
2021/11/21 07:33:25;;;;;;;;;20.25;14.25;;;;;11.03;65.99;101063.16;5101100;27;45389;-65
2021/11/21 07:35:53;;;;;;;;;20.50;18.50;;;;;11.00;65.97;101060.56;5100974;27;45353;-65
2021/11/21 07:38:19;;;;;;;;;19.50;14.00;;;;;11.02;65.76;101064.94;5100482;27;46276;-65
2021/11/21 07:40:45;;;;;;;;;21.00;18.75;;;;;10.98;65.83;101054.41;5100898;27;45217;-65
2021/11/21 07:43:11;;;;;;;;;20.75;17.00;;;;;11.05;65.64;101058.63;5100789;27;45479;-65
2021/11/21 07:45:36;;;;;;;;;19.00;16.00;;;;;10.94;65.32;101037.56;5096641;27;45343;-65
2021/11/21 07:48:02;;;;;;;;;20.00;16.25;;;;;10.99;65.63;101053.47;5099211;27;48213;-65
2021/11/21 07:50:27;;;;;;;;;23.00;20.75;;;;;11.03;66.11;101053.34;5093274;27;45414;-65
2021/11/21 07:52:53;;;;;;;;;19.25;17.50;;;;;10.96;65.79;101041.09;5100330;27;45440;-65
2021/11/21 07:55:18;;;;;;;;;17.00;16.75;;;;;11.03;66.23;101047.13;5100482;27;45349;-65
2021/11/21 07:57:43;;;;;;;;;21.00;20.75;;;;;10.92;66.19;101036.75;5100419;27;45427;-65
2021/11/21 08:00:11;;;;;;;;;24.25;20.75;;;;;10.99;65.96;101045.44;5100554;27;45437;-65
2021/11/21 08:02:37;;;;;;;;;28.00;23.00;;;;;11.02;66.07;101058.72;5100626;27;45291;-65
2021/11/21 08:05:04;;;;;;;;;26.25;19.75;;;;;10.99;66.30;101051.66;5100531;27;45592;-66
2021/11/21 08:07:30;;;;;;;;;23.00;19.25;;;;;11.00;66.26;101056.09;5100287;27;45207;-63
2021/11/21 08:09:55;;;;;;;;;19.25;17.50;;;;;10.92;66.10;101055.44;5100467;27;45170;-63
2021/11/21 08:12:21;;;;;;;;;19.00;17.75;;;;;10.89;65.97;101053.75;5100131;27;45223;-63
2021/11/21 08:14:46;;;;;;;;;23.75;20.00;;;;;10.92;66.22;101058.13;5099959;27;45445;-64
2021/11/21 08:17:12;;;;;;;;;19.50;16.50;;;;;10.93;65.91;101057.22;5100127;27;45561;-63
2021/11/21 08:19:38;;;;;;;;;20.25;17.00;;;;;10.89;65.86;101039.50;5099584;27;45400;-63
2021/11/21 08:22:04;;;;;;;;;18.75;16.50;;;;;10.92;66.40;101044.75;5099056;27;45758;-63
2021/11/21 08:24:30;;;;;;;;;23.25;19.25;;;;;10.85;66.15;101037.84;5099996;27;45342;-63
2021/11/21 08:26:55;;;;;;;;;21.00;18.75;;;;;10.86;66.29;101032.47;5099772;27;45460;-63
2021/11/21 08:29:21;;;;;;;;;22.00;18.75;;;;;10.95;66.17;101052.69;5099735;27;45432;-63
2021/11/21 08:31:48;;;;;;;;;19.50;17.25;;;;;10.93;66.74;101051.88;5100104;27;45342;-63
2021/11/21 08:34:13;;;;;;;;;20.25;17.00;;;;;10.90;66.54;101046.59;5098871;27;45171;-63
2021/11/21 08:36:39;;;;;;;;;21.75;18.25;;;;;10.83;66.81;101032.56;5099580;27;45328;-63
2021/11/21 08:39:04;;;;;;;;;21.25;19.50;;;;;10.92;66.66;101045.63;5102179;27;45352;-63
2021/11/21 08:41:29;;;;;;;;;18.00;15.75;;;;;10.94;66.73;101050.94;5102181;27;45475;-63
2021/11/21 08:43:56;;;;;;;;;17.25;15.75;;;;;10.91;66.55;101038.56;5103162;27;45381;-63
2021/11/21 08:46:22;;;;;;;;;17.00;16.50;;;;;10.92;66.44;101048.28;5101961;27;47174;-63
2021/11/21 08:48:47;;;;;;;;;26.50;20.25;;;;;10.89;66.74;101042.16;5099171;27;45381;-62
2021/11/21 08:51:13;;;;;;;;;22.00;15.00;;;;;10.94;66.44;101056.25;5097811;27;45341;-60
2021/11/21 08:53:38;;;;;;;;;15.50;15.00;;;;;10.93;66.88;101038.50;5103675;27;45257;-62
2021/11/21 08:56:04;;;;;;;;;24.25;20.25;;;;;10.92;66.88;101039.41;5102693;27;46357;-63
2021/11/21 08:58:29;;;;;;;;;18.50;18.50;;;;;10.87;66.63;101034.19;5103520;27;45315;-63
2021/11/21 09:00:55;;;;;;;;;19.25;15.75;;;;;10.97;66.58;101040.16;5103176;27;45460;-63
2021/11/21 09:03:20;;;;;;;;;19.75;18.25;;;;;10.98;66.60;101035.72;5103437;27;45514;-62
2021/11/21 09:05:45;;;;;;;;;17.75;13.00;;;;;10.97;66.49;101033.94;5102671;27;45238;-62
2021/11/21 09:08:12;;;;;;;;;18.00;15.75;;;;;10.98;67.15;101039.25;5096820;27;45393;-62
2021/11/21 09:10:38;;;;;;;;;19.50;18.25;;;;;10.92;67.05;101031.41;5098840;27;45444;-63
2021/11/21 09:13:04;;;;;;;;;16.75;15.25;;;;;11.03;66.53;101049.81;5103277;27;45259;-62
2021/11/21 09:15:29;;;;;;;;;19.50;18.25;;;;;11.00;67.01;101037.41;5102476;27;45449;-62
2021/11/21 09:17:54;;;;;;;;;19.75;17.75;;;;;11.02;66.58;101038.22;5101858;27;45240;-64
2021/11/21 09:20:23;;;;;;;;;16.00;15.50;;;;;11.07;66.88;101038.97;5098614;27;45916;-65
2021/11/21 09:22:49;;;;;;;;;30.25;25.75;;;;;11.10;67.01;101043.34;5095934;27;45408;-64
2021/11/21 09:25:15;;;;;;;;;25.25;20.50;;;;;11.07;67.08;101036.28;5102411;27;45373;-64
2021/11/21 09:27:41;;;;;;;;;26.50;22.75;;;;;11.07;66.79;101022.94;5102584;27;45302;-64
2021/11/21 09:30:08;;;;;;;;;24.50;19.25;;;;;11.07;66.93;101017.59;5102497;27;45269;-64
2021/11/21 09:32:34;;;;;;;;;37.25;33.00;;;;;10.96;67.24;101001.03;5102850;27;45185;-65
2021/11/21 09:35:01;;;;;;;;;29.50;29.00;;;;;11.04;66.79;101019.47;5102433;27;46617;-65
2021/11/21 09:37:26;;;;;;;;;31.50;29.00;;;;;10.97;67.08;101001.91;5102500;27;46997;-65
2021/11/21 09:39:52;;;;;;;;;23.00;23.00;;;;;11.03;67.08;101023.97;5102338;27;45519;-65
2021/11/21 09:42:17;;;;;;;;;28.50;24.50;;;;;11.10;66.92;101032.66;5102404;27;45319;-65
2021/11/21 09:44:43;;;;;;;;;21.00;17.25;;;;;11.09;67.20;101045.16;5099672;27;46370;-65
2021/11/21 09:47:08;;;;;;;;;20.75;19.25;;;;;11.11;66.83;101037.09;5091275;27;45293;-65
2021/11/21 09:49:34;;;;;;;;;24.25;18.75;;;;;11.19;67.08;101050.22;5101180;27;45489;-65
2021/11/21 09:51:59;;;;;;;;;17.50;14.75;;;;;11.17;66.42;101038.69;5102038;27;45631;-62
2021/11/21 09:54:28;;;;;;;;;17.25;16.75;;;;;11.22;67.22;101040.28;5102348;27;46284;-62
2021/11/21 09:56:54;;;;;;;;;17.50;14.75;;;;;11.26;67.01;101041.06;5102431;27;45479;-63
2021/11/21 09:59:53;;;;;;;;;15.00;15.00;;;;;11.26;67.01;101033.97;5101709;27;45330;-62
2021/11/21 10:02:30;;;;;;;;;17.00;14.50;;;;;11.28;67.15;101039.25;5102292;27;45530;-62
2021/11/21 10:05:00;;;;;;;;;24.00;20.75;;;;;11.27;67.12;101033.00;5102263;27;45397;-62
2021/11/21 10:07:31;;;;;;;;;19.25;14.25;;;;;11.31;66.75;101034.69;5102203;27;45871;-61
2021/11/21 10:09:58;;;;;;;;;16.00;14.00;;;;;11.35;66.70;101040.81;5101956;27;45380;-64
2021/11/21 10:12:32;;;;;;;;;21.00;13.00;;;;;11.36;66.89;101041.66;5101822;27;45408;-64
2021/11/21 10:15:02;;;;;;;;;17.00;13.75;;;;;11.36;66.83;101033.66;5101860;27;45377;-64
2021/11/21 10:17:30;;;;;;;;;13.50;13.50;;;;;11.34;66.88;101020.34;5101794;27;45366;-64
2021/11/21 10:20:04;;;;;;;;;16.25;14.75;;;;;11.32;66.75;101003.47;5101143;27;45487;-64
2021/11/21 10:22:59;;;;;;;;;14.00;14.00;;;;;11.37;66.95;101003.34;5101996;27;45536;-64
2021/11/21 10:25:34;;;;;;;;;11.75;11.75;;;;;11.44;66.93;101015.59;5101555;27;46160;-65
2021/11/21 10:28:11;;;;;;;;;12.00;11.50;;;;;11.45;67.03;101012.88;5101680;27;45604;-65
2021/11/21 10:30:58;;;;;;;;;16.75;14.25;;;;;11.36;66.87;100997.13;5101460;27;45237;-66
2021/11/21 10:33:27;;;;;;;;;18.75;14.00;;;;;11.45;66.68;101012.88;5100960;27;45487;-65
2021/11/21 10:36:00;;;;;;;;;17.25;16.25;;;;;11.47;67.16;101013.69;5101122;27;46091;-65
2021/11/21 10:38:46;;;;;;;;;19.00;17.50;;;;;11.53;66.70;101012.63;5101568;27;45159;-68
2021/11/21 10:41:24;;;;;;;;;18.50;18.50;;;;;11.52;66.87;101005.53;5096491;27;45408;-65
2021/11/21 10:44:05;;;;;;;;;19.25;18.00;;;;;11.55;66.95;101004.56;5098781;27;45747;-64
2021/11/21 10:46:42;;;;;;;;;18.25;15.00;;;;;11.59;66.76;101007.06;5099451;27;45712;-64
2021/11/21 10:49:24;;;;;;;;;14.25;13.00;;;;;11.59;67.04;101003.53;5103611;27;45608;-63
2021/11/21 10:51:58;;;;;;;;;19.00;18.75;;;;;11.61;67.02;100994.53;5095189;27;45277;-64
2021/11/21 10:54:27;;;;;;;;;19.00;18.00;;;;;11.63;66.69;100986.47;5101296;27;45432;-64
2021/11/21 10:56:55;;;;;;;;;22.75;21.75;;;;;11.60;67.06;100990.09;5101549;27;46208;-64
2021/11/21 10:59:38;;;;;;;;;21.50;20.00;;;;;11.61;66.32;100989.19;5100714;27;45393;-65
2021/11/21 11:02:16;;;;;;;;;16.50;16.50;;;;;11.66;66.68;100991.69;5100636;27;45423;-64
2021/11/21 11:04:58;;;;;;;;;23.00;18.25;;;;;11.71;66.67;100994.22;5101526;27;45317;-64
2021/11/21 11:07:24;;;;;;;;;20.00;18.25;;;;;11.70;66.80;100988.00;5101068;27;46352;-63